Time;durP1;ratioP1;P1;durP2;ratioP2;P2;SDS_P1;SDS_P2;PMS_P1;PMS_P2;Temp;Humidity;BMP_temperature;BMP_pressure;BME280_temperature;BME280_humidity;BME280_pressure;Samples;Min_cycle;Max_cycle;Signal;HPM_P1;HPM_P2
2023/11/06 00:02:05;;;;;;;2.33;1.35;;;22.80;57.60;;;;;;6053387;23;89264;-87
2023/11/06 00:04:32;;;;;;;2.10;0.95;;;22.80;57.60;;;;;;6053525;23;88881;-86
2023/11/06 00:07:00;;;;;;;1.58;1.15;;;22.70;57.60;;;;;;6052063;23;90125;-87
2023/11/06 00:09:25;;;;;;;1.27;0.82;;;22.70;57.60;;;;;;6053946;23;87615;-87
2023/11/06 00:11:51;;;;;;;2.17;1.20;;;22.70;57.60;;;;;;6053722;23;89736;-86
2023/11/06 00:14:17;;;;;;;2.58;1.00;;;22.70;57.60;;;;;;6052904;23;91300;-86
2023/11/06 00:16:43;;;;;;;2.10;1.10;;;22.70;57.60;;;;;;6053044;23;91317;-86
2023/11/06 00:19:08;;;;;;;1.70;1.13;;;22.70;57.70;;;;;;6052577;23;87477;-87
2023/11/06 00:21:35;;;;;;;1.35;0.90;;;22.60;57.60;;;;;;6052651;23;89243;-87
2023/11/06 00:24:01;;;;;;;3.55;1.38;;;22.60;57.60;;;;;;6052580;23;89207;-87
2023/11/06 00:26:27;;;;;;;1.92;1.25;;;22.60;57.60;;;;;;6053860;23;89996;-85
2023/11/06 00:28:53;;;;;;;4.30;1.77;;;22.60;57.50;;;;;;6052529;23;87367;-87
2023/11/06 00:31:19;;;;;;;1.90;0.90;;;22.60;57.70;;;;;;6055847;23;86573;-88
2023/11/06 00:33:45;;;;;;;1.83;1.00;;;22.60;57.70;;;;;;6053910;23;88022;-87
2023/11/06 00:36:21;;;;;;;3.38;1.27;;;22.60;57.70;;;;;;6052543;23;90374;-86
2023/11/06 00:38:46;;;;;;;1.58;1.15;;;22.60;57.70;;;;;;6052209;23;88423;-87
2023/11/06 00:41:12;;;;;;;1.17;1.08;;;22.50;57.70;;;;;;6053670;23;89211;-87
2023/11/06 00:43:39;;;;;;;1.52;1.00;;;22.50;57.60;;;;;;6052804;23;90995;-88
2023/11/06 00:46:04;;;;;;;4.10;1.10;;;22.50;57.70;;;;;;6055530;23;87670;-88
2023/11/06 00:48:30;;;;;;;1.98;0.98;;;22.50;57.70;;;;;;6053269;23;87384;-87
2023/11/06 00:50:56;;;;;;;2.25;1.13;;;22.50;57.80;;;;;;6052809;23;89631;-87
2023/11/06 00:53:21;;;;;;;2.13;1.02;;;22.40;57.70;;;;;;6054235;23;90454;-87
2023/11/06 00:55:48;;;;;;;2.42;1.20;;;22.40;57.80;;;;;;6053277;23;90388;-87
2023/11/06 00:58:16;;;;;;;1.90;1.27;;;22.40;57.70;;;;;;6053280;23;87292;-86
2023/11/06 01:00:45;;;;;;;2.40;1.05;;;22.40;57.90;;;;;;6054543;23;87517;-86
2023/11/06 01:03:10;;;;;;;1.83;1.10;;;22.40;57.80;;;;;;6052827;23;91362;-87
2023/11/06 01:05:37;;;;;;;2.17;1.20;;;22.40;57.70;;;;;;6054090;23;90452;-87
2023/11/06 01:08:04;;;;;;;1.50;1.02;;;22.40;57.70;;;;;;6055330;23;87308;-89
2023/11/06 01:10:34;;;;;;;2.00;1.00;;;22.40;57.70;;;;;;6053468;23;88477;-86
2023/11/06 01:13:00;;;;;;;1.30;0.98;;;22.40;57.50;;;;;;6053831;23;89616;-89
2023/11/06 01:15:32;;;;;;;1.88;1.15;;;22.30;57.60;;;;;;6054654;23;88205;-86
2023/11/06 01:17:58;;;;;;;1.77;1.08;;;22.30;57.80;;;;;;6054837;23;87682;-88
2023/11/06 01:20:27;;;;;;;1.85;0.95;;;22.30;57.80;;;;;;6055008;23;88833;-87
2023/11/06 01:22:52;;;;;;;1.65;0.98;;;22.30;57.60;;;;;;6052200;23;90231;-87
2023/11/06 01:25:18;;;;;;;2.17;1.20;;;22.30;57.80;;;;;;6055632;23;87968;-89
2023/11/06 01:27:44;;;;;;;3.38;1.15;;;22.30;57.70;;;;;;6052821;23;87946;-87
2023/11/06 01:30:12;;;;;;;1.80;1.17;;;22.30;57.70;;;;;;6052096;23;89549;-88
2023/11/06 01:32:45;;;;;;;1.53;0.70;;;22.20;57.70;;;;;;6052276;23;90217;-87
2023/11/06 01:35:12;;;;;;;1.52;0.88;;;22.20;57.70;;;;;;6056065;23;87344;-88
2023/11/06 01:37:38;;;;;;;3.15;1.17;;;22.20;57.70;;;;;;6055249;23;87932;-88
2023/11/06 01:40:07;;;;;;;2.35;1.10;;;22.20;57.70;;;;;;6053469;23;90062;-87
2023/11/06 01:42:32;;;;;;;1.75;1.02;;;22.20;57.70;;;;;;6053556;23;90831;-87
2023/11/06 01:44:58;;;;;;;1.25;0.95;;;22.20;57.70;;;;;;6054263;23;89762;-88
2023/11/06 01:47:24;;;;;;;2.03;0.90;;;22.20;57.80;;;;;;6054965;23;87393;-87
2023/11/06 01:49:50;;;;;;;2.15;0.93;;;22.20;57.70;;;;;;6052905;23;89791;-89
2023/11/06 01:52:18;;;;;;;1.77;1.08;;;22.20;58.00;;;;;;6053753;23;90923;-88
2023/11/06 01:54:44;;;;;;;3.03;0.95;;;22.20;57.80;;;;;;6052665;23;89961;-88
2023/11/06 01:57:11;;;;;;;1.55;0.80;;;22.20;57.80;;;;;;6054211;23;87891;-87
2023/11/06 01:59:37;;;;;;;1.73;0.80;;;22.10;57.80;;;;;;6052706;23;89263;-87
2023/11/06 02:02:06;;;;;;;1.27;0.82;;;22.10;57.80;;;;;;6055761;23;89505;-88
2023/11/06 02:04:32;;;;;;;0.93;0.73;;;22.10;58.00;;;;;;6053244;23;90206;-88
2023/11/06 02:06:58;;;;;;;0.82;0.80;;;22.10;57.90;;;;;;6052898;23;87785;-87
2023/11/06 02:09:27;;;;;;;1.27;1.02;;;22.10;57.80;;;;;;6052299;23;89610;-88
2023/11/06 02:11:53;;;;;;;1.58;0.90;;;22.10;57.80;;;;;;6053428;23;90616;-88
2023/11/06 02:14:18;;;;;;;1.10;0.70;;;22.10;57.80;;;;;;6055871;23;87192;-87
2023/11/06 02:16:44;;;;;;;1.75;0.82;;;22.10;57.70;;;;;;6053468;23;88477;-88
2023/11/06 02:19:09;;;;;;;2.45;1.10;;;22.10;57.80;;;;;;6051757;23;89639;-87
2023/11/06 02:21:35;;;;;;;1.85;0.90;;;22.00;57.80;;;;;;6052064;23;89231;-88
2023/11/06 02:24:02;;;;;;;1.40;0.73;;;22.10;57.80;;;;;;6053051;23;89992;-88
2023/11/06 02:26:29;;;;;;;2.03;0.98;;;22.00;57.70;;;;;;6053167;23;87343;-87
2023/11/06 02:28:55;;;;;;;1.33;0.70;;;22.00;57.80;;;;;;6054191;23;89171;-88
2023/11/06 02:31:20;;;;;;;1.83;1.10;;;22.00;57.70;;;;;;6054916;23;87905;-87
2023/11/06 02:33:46;;;;;;;1.42;0.73;;;22.00;57.70;;;;;;6053795;23;88957;-88
2023/11/06 02:36:12;;;;;;;1.35;0.93;;;22.00;57.80;;;;;;6053962;23;88116;-88
2023/11/06 02:38:37;;;;;;;1.73;0.70;;;22.00;57.90;;;;;;6053031;23;89220;-88
2023/11/06 02:41:03;;;;;;;1.58;0.90;;;22.00;57.70;;;;;;6053863;23;88679;-88
2023/11/06 02:43:29;;;;;;;1.95;0.85;;;22.00;57.70;;;;;;6050741;23;91167;-88
2023/11/06 02:45:56;;;;;;;1.05;0.80;;;21.90;57.90;;;;;;6051635;23;87462;-87
2023/11/06 02:48:22;;;;;;;2.25;0.90;;;21.90;57.80;;;;;;6052129;23;88737;-88
2023/11/06 02:50:49;;;;;;;1.30;0.85;;;21.90;57.70;;;;;;6053030;23;91075;-87
2023/11/06 02:53:15;;;;;;;1.25;0.90;;;21.90;57.80;;;;;;6056003;23;87888;-89
2023/11/06 02:55:40;;;;;;;1.33;0.70;;;21.90;57.80;;;;;;6054947;23;87392;-87
2023/11/06 02:58:06;;;;;;;1.60;0.93;;;21.90;57.80;;;;;;6055557;23;86858;-88
2023/11/06 03:00:31;;;;;;;1.10;0.75;;;21.90;57.70;;;;;;6053538;23;89196;-88
2023/11/06 03:02:57;;;;;;;1.10;0.70;;;21.90;57.60;;;;;;6052489;23;89211;-89
2023/11/06 03:05:23;;;;;;;1.15;0.82;;;21.90;57.70;;;;;;6052921;23;88574;-86
2023/11/06 03:07:49;;;;;;;1.27;0.77;;;21.90;57.70;;;;;;6052316;23;88071;-87
2023/11/06 03:10:15;;;;;;;2.17;0.93;;;21.90;57.90;;;;;;6054511;23;87787;-87
2023/11/06 03:12:41;;;;;;;1.38;0.80;;;21.90;57.80;;;;;;6053036;23;90022;-89
2023/11/06 03:15:07;;;;;;;1.73;0.80;;;21.90;57.80;;;;;;6052556;23;91052;-88
2023/11/06 03:17:33;;;;;;;1.10;0.90;;;21.90;57.70;;;;;;6053547;23;90410;-89
2023/11/06 03:19:59;;;;;;;1.92;0.90;;;21.80;57.70;;;;;;6053256;23;89229;-88
2023/11/06 03:22:25;;;;;;;1.73;0.77;;;21.80;57.90;;;;;;6055445;23;86318;-88
2023/11/06 03:24:51;;;;;;;1.90;0.90;;;21.80;57.80;;;;;;6052108;23;87883;-88
2023/11/06 03:27:17;;;;;;;1.60;1.10;;;21.80;57.70;;;;;;6055037;23;88404;-88
2023/11/06 03:29:43;;;;;;;1.60;0.90;;;21.80;57.70;;;;;;6051420;23;91305;-87
2023/11/06 03:32:08;;;;;;;2.15;0.90;;;21.80;57.70;;;;;;6059444;23;87704;-89
2023/11/06 03:34:34;;;;;;;2.63;1.17;;;21.80;57.60;;;;;;6051208;23;87490;-87
2023/11/06 03:37:00;;;;;;;1.92;1.10;;;21.80;57.60;;;;;;6054933;23;87450;-87
2023/11/06 03:39:25;;;;;;;1.63;1.10;;;21.80;57.60;;;;;;6051039;23;90962;-87
2023/11/06 03:41:51;;;;;;;1.05;0.65;;;21.80;57.70;;;;;;6052940;23;90410;-87
2023/11/06 03:44:17;;;;;;;1.88;0.80;;;21.80;57.60;;;;;;6055453;23;87507;-87
2023/11/06 03:46:42;;;;;;;1.55;0.82;;;21.80;57.70;;;;;;6053800;23;89387;-88
2023/11/06 03:49:08;;;;;;;1.67;1.00;;;21.80;57.60;;;;;;6053985;23;90135;-87
2023/11/06 03:51:34;;;;;;;1.05;0.70;;;21.80;57.60;;;;;;6055198;23;89825;-87
2023/11/06 03:53:59;;;;;;;2.13;0.82;;;21.70;57.50;;;;;;6055791;23;88270;-88
2023/11/06 03:56:25;;;;;;;1.23;0.70;;;21.70;57.50;;;;;;6056824;23;87909;-87
2023/11/06 03:58:51;;;;;;;1.27;0.80;;;21.70;57.60;;;;;;6053180;23;89830;-88
2023/11/06 04:01:16;;;;;;;1.45;0.80;;;21.70;57.70;;;;;;6055368;23;87990;-87
2023/11/06 04:03:42;;;;;;;1.85;1.00;;;21.70;57.60;;;;;;6053993;23;87384;-87
2023/11/06 04:06:08;;;;;;;1.40;0.80;;;21.70;58.00;;;;;;6053446;23;88212;-88
2023/11/06 04:08:35;;;;;;;1.58;0.80;;;21.70;58.10;;;;;;6054649;23;90962;-85
2023/11/06 04:11:01;;;;;;;2.05;0.82;;;21.70;58.10;;;;;;6053637;23;90273;-88
2023/11/06 04:13:27;;;;;;;1.63;0.90;;;21.70;58.20;;;;;;6053070;23;87954;-87
2023/11/06 04:15:52;;;;;;;2.22;0.98;;;21.70;58.00;;;;;;6055616;23;87194;-88
2023/11/06 04:18:18;;;;;;;1.35;0.82;;;21.60;58.10;;;;;;6054869;23;89213;-88
2023/11/06 04:20:44;;;;;;;1.77;0.73;;;21.70;58.00;;;;;;6053243;23;88695;-87
2023/11/06 04:23:10;;;;;;;0.50;0.50;;;21.60;58.10;;;;;;6056854;23;87622;-87
2023/11/06 04:25:39;;;;;;;0.60;0.60;;;21.60;58.00;;;;;;6053213;23;88319;-88
2023/11/06 04:28:08;;;;;;;1.55;0.90;;;21.60;58.00;;;;;;6055556;23;87533;-87
2023/11/06 04:30:34;;;;;;;1.30;0.70;;;21.60;58.00;;;;;;6052511;23;90323;-87
2023/11/06 04:33:00;;;;;;;1.05;0.80;;;21.60;58.00;;;;;;6051522;23;87195;-87
2023/11/06 04:35:27;;;;;;;0.98;0.70;;;21.60;58.10;;;;;;6055237;23;89755;-86
2023/11/06 04:37:52;;;;;;;0.65;0.52;;;21.60;58.00;;;;;;6055584;23;88024;-88
2023/11/06 04:40:19;;;;;;;1.60;1.00;;;21.60;58.10;;;;;;6053594;23;88598;-86
2023/11/06 04:42:46;;;;;;;1.35;0.90;;;21.60;58.00;;;;;;6052656;23;88532;-87
2023/11/06 04:45:12;;;;;;;2.30;1.10;;;21.60;58.10;;;;;;6054211;23;89413;-87
2023/11/06 04:47:37;;;;;;;1.83;0.95;;;21.60;58.00;;;;;;6055196;23;88615;-88
2023/11/06 04:50:03;;;;;;;1.67;0.85;;;21.60;57.90;;;;;;6054262;23;89344;-87
2023/11/06 04:52:29;;;;;;;1.35;0.77;;;21.60;58.00;;;;;;6053624;23;87617;-87
2023/11/06 04:54:55;;;;;;;0.90;0.70;;;21.60;58.10;;;;;;6055025;23;87366;-87
2023/11/06 04:57:20;;;;;;;1.65;0.82;;;21.50;58.20;;;;;;6055128;23;87889;-88
2023/11/06 04:59:46;;;;;;;1.48;0.88;;;21.50;58.10;;;;;;6052806;23;89358;-87
2023/11/06 05:02:12;;;;;;;1.42;0.95;;;21.60;58.70;;;;;;6054267;23;87511;-87
2023/11/06 05:04:37;;;;;;;2.78;0.90;;;21.50;58.20;;;;;;6054013;23;89520;-87
2023/11/06 05:07:04;;;;;;;2.35;0.75;;;21.50;58.10;;;;;;6055026;23;89133;-87
2023/11/06 05:09:29;;;;;;;1.23;0.85;;;21.50;58.20;;;;;;6052271;23;91017;-87
2023/11/06 05:11:55;;;;;;;1.17;0.70;;;21.50;58.10;;;;;;6053549;23;87569;-87
2023/11/06 05:14:21;;;;;;;1.75;1.00;;;21.50;58.10;;;;;;6053935;23;89186;-86
2023/11/06 05:16:46;;;;;;;1.20;0.80;;;21.50;58.20;;;;;;6053345;23;90870;-87
2023/11/06 05:19:12;;;;;;;1.70;0.90;;;21.50;58.30;;;;;;6052614;23;90499;-86
2023/11/06 05:21:38;;;;;;;1.10;0.60;;;21.50;58.20;;;;;;6056361;23;87378;-87
2023/11/06 05:24:04;;;;;;;1.25;0.80;;;21.50;58.20;;;;;;6053803;23;89279;-87
2023/11/06 05:26:29;;;;;;;0.90;0.70;;;21.50;58.10;;;;;;6054701;23;91469;-88
2023/11/06 05:28:55;;;;;;;1.00;0.70;;;21.50;58.10;;;;;;6052760;23;90398;-86
2023/11/06 05:31:22;;;;;;;2.10;1.00;;;21.50;58.20;;;;;;6052784;23;88217;-86
2023/11/06 05:33:51;;;;;;;1.30;0.70;;;21.50;58.20;;;;;;6053748;23;88955;-87
2023/11/06 05:38:42;;;;;;;0.90;0.65;;;21.50;58.20;;;;;;6028811;23;90616;-88
2023/11/06 05:41:11;;;;;;;0.65;0.63;;;21.50;58.20;;;;;;6056948;23;87544;-88
2023/11/06 05:43:38;;;;;;;1.45;0.82;;;21.50;58.10;;;;;;6053692;23;89805;-87
2023/11/06 05:46:05;;;;;;;1.60;0.93;;;21.50;58.10;;;;;;6054231;23;88117;-87
2023/11/06 05:48:32;;;;;;;2.50;1.20;;;21.50;58.20;;;;;;6053883;23;90624;-88
2023/11/06 05:50:59;;;;;;;1.95;0.98;;;21.40;58.10;;;;;;6056545;23;87605;-87
2023/11/06 05:53:25;;;;;;;1.70;0.80;;;21.40;58.40;;;;;;6054995;23;88255;-87
2023/11/06 05:55:50;;;;;;;0.60;0.40;;;21.40;58.30;;;;;;6051568;23;91659;-88
2023/11/06 05:58:16;;;;;;;0.70;0.57;;;21.40;58.30;;;;;;6054054;23;91511;-87
2023/11/06 06:00:42;;;;;;;1.20;0.70;;;21.40;58.10;;;;;;6055014;23;87507;-87
2023/11/06 06:03:08;;;;;;;3.20;0.88;;;21.40;58.10;;;;;;6052968;23;89674;-87
2023/11/06 06:05:34;;;;;;;0.85;0.63;;;21.40;58.20;;;;;;6053173;23;90597;-88
2023/11/06 06:07:59;;;;;;;1.33;0.77;;;21.40;58.40;;;;;;6052934;23;90476;-88
2023/11/06 06:10:25;;;;;;;2.38;0.93;;;21.40;58.20;;;;;;6053745;23;87509;-88
2023/11/06 06:12:51;;;;;;;1.13;0.75;;;21.30;58.10;;;;;;6054987;23;88833;-90
2023/11/06 06:15:17;;;;;;;2.45;0.88;;;21.40;58.20;;;;;;6058497;23;90411;-89
2023/11/06 06:17:43;;;;;;;2.55;1.10;;;21.30;58.20;;;;;;6059944;23;89046;-91
2023/11/06 06:20:14;;;;;;;2.38;1.10;;;21.40;57.30;;;;;;6059145;23;88308;-91
2023/11/06 06:22:40;;;;;;;5.60;1.20;;;21.30;56.90;;;;;;6058908;23;87969;-91
2023/11/06 06:25:07;;;;;;;9.57;2.20;;;21.30;57.60;;;;;;6060322;23;90407;-92
2023/11/06 06:27:32;;;;;;;18.30;3.50;;;21.40;57.80;;;;;;6058009;23;89112;-89
2023/11/06 06:29:58;;;;;;;26.50;5.35;;;21.40;58.00;;;;;;6055778;23;87584;-88
2023/11/06 06:32:24;;;;;;;15.25;3.83;;;21.40;58.10;;;;;;6055326;23;89115;-90
2023/11/06 06:34:50;;;;;;;11.60;3.45;;;21.40;58.10;;;;;;6053185;23;89978;-89
2023/11/06 06:37:16;;;;;;;12.30;3.83;;;21.50;58.20;;;;;;6055406;23;89780;-88
2023/11/06 06:39:41;;;;;;;13.15;3.63;;;21.50;58.30;;;;;;6056023;23;87555;-87
2023/11/06 06:42:07;;;;;;;17.02;3.85;;;21.50;58.50;;;;;;6054229;23;89729;-87
2023/11/06 06:44:33;;;;;;;15.27;3.85;;;21.50;58.80;;;;;;6055503;23;88809;-87
2023/11/06 06:46:58;;;;;;;10.13;3.47;;;21.50;58.70;;;;;;6054401;23;90631;-87
2023/11/06 06:49:27;;;;;;;16.50;4.03;;;21.50;58.70;;;;;;6049226;23;87437;-87
2023/11/06 06:51:56;;;;;;;8.82;3.00;;;21.50;58.70;;;;;;6051255;23;87244;-86
2023/11/06 06:54:21;;;;;;;13.43;3.70;;;21.50;58.80;;;;;;6052156;23;87527;-87
2023/11/06 06:56:49;;;;;;;13.48;3.42;;;21.50;58.80;;;;;;6054512;23;87304;-87
2023/11/06 06:59:14;;;;;;;9.43;3.40;;;21.50;58.90;;;;;;6054530;23;87535;-89
2023/11/06 07:01:42;;;;;;;10.50;3.25;;;21.60;59.00;;;;;;6056900;23;86676;-89
2023/11/06 07:04:15;;;;;;;9.48;3.10;;;21.60;59.00;;;;;;6057165;23;87101;-90
2023/11/06 07:06:41;;;;;;;9.23;3.08;;;21.50;59.00;;;;;;6053865;23;89634;-89
2023/11/06 07:09:08;;;;;;;11.23;3.42;;;21.50;59.00;;;;;;6056273;23;88602;-89
2023/11/06 07:11:34;;;;;;;14.07;3.50;;;21.50;59.00;;;;;;6059239;23;87238;-88
2023/11/06 07:14:03;;;;;;;6.97;3.35;;;21.60;59.10;;;;;;6057886;23;89504;-92
2023/11/06 07:16:29;;;;;;;12.43;3.67;;;21.60;59.00;;;;;;6056847;23;89160;-91
2023/11/06 07:18:55;;;;;;;5.85;2.50;;;21.60;59.10;;;;;;6053732;23;87615;-90
2023/11/06 07:21:23;;;;;;;10.57;3.15;;;21.60;59.10;;;;;;6054106;23;88953;-89
2023/11/06 07:23:49;;;;;;;7.30;3.20;;;21.60;59.20;;;;;;6047157;23;89379;-91
2023/11/06 07:26:15;;;;;;;18.45;4.50;;;21.60;59.40;;;;;;6049040;23;88910;-91
2023/11/06 07:28:44;;;;;;;10.93;3.55;;;21.60;58.90;;;;;;6045530;23;87728;-87
2023/11/06 07:31:09;;;;;;;13.68;4.07;;;21.60;59.10;;;;;;6048388;23;87220;-89
2023/11/06 07:33:37;;;;;;;30.25;6.40;;;21.60;59.00;;;;;;6045263;23;91128;-91
2023/11/06 07:36:03;;;;;;;24.17;5.38;;;21.60;58.00;;;;;;6047215;23;88568;-88
2023/11/06 07:38:32;;;;;;;21.20;4.55;;;21.60;57.90;;;;;;6048277;23;87572;-89
2023/11/06 07:40:57;;;;;;;13.93;3.97;;;21.60;58.70;;;;;;6049818;23;87457;-88
2023/11/06 07:43:23;;;;;;;14.68;3.92;;;21.60;58.80;;;;;;6055791;23;87307;-91
2023/11/06 07:45:48;;;;;;;15.23;5.85;;;21.60;59.10;;;;;;6053826;23;90095;-88
2023/11/06 07:48:14;;;;;;;22.27;5.25;;;21.60;59.30;;;;;;6053518;23;87656;-86
2023/11/06 07:50:40;;;;;;;16.35;4.93;;;21.60;59.70;;;;;;6051091;23;87847;-89
2023/11/06 07:53:06;;;;;;;19.75;5.65;;;21.60;60.30;;;;;;6053665;23;90437;-88
2023/11/06 07:55:32;;;;;;;21.98;5.70;;;21.60;61.00;;;;;;6057963;23;87412;-89
2023/11/06 07:57:57;;;;;;;21.55;5.88;;;21.60;61.20;;;;;;6054141;23;88087;-89
2023/11/06 08:00:23;;;;;;;20.73;5.45;;;21.60;61.30;;;;;;6053972;23;88231;-89
2023/11/06 08:02:50;;;;;;;22.75;4.93;;;21.60;60.30;;;;;;6054810;23;89518;-89
2023/11/06 08:05:16;;;;;;;13.00;4.07;;;21.70;60.30;;;;;;6055717;23;88839;-89
2023/11/06 08:07:42;;;;;;;25.40;6.25;;;21.70;59.90;;;;;;6054940;23;87133;-90
2023/11/06 08:10:09;;;;;;;16.70;5.78;;;21.70;59.80;;;;;;6053343;23;89030;-88
2023/11/06 08:12:35;;;;;;;18.60;4.97;;;21.70;59.30;;;;;;6052873;23;90304;-87
2023/11/06 08:15:03;;;;;;;14.85;5.00;;;21.70;59.80;;;;;;6051245;23;90150;-88
2023/11/06 08:17:29;;;;;;;17.70;5.35;;;21.80;60.00;;;;;;6054307;23;87492;-88
2023/11/06 08:19:55;;;;;;;18.10;5.47;;;21.80;59.70;;;;;;6054772;23;87754;-88
2023/11/06 08:22:21;;;;;;;22.13;5.65;;;21.80;60.30;;;;;;6052899;23;91601;-88
2023/11/06 08:24:49;;;;;;;16.13;4.97;;;21.80;60.50;;;;;;6040115;23;91245;-87
2023/11/06 08:27:19;;;;;;;18.33;5.43;;;21.80;60.90;;;;;;6051754;23;87454;-89
2023/11/06 08:29:45;;;;;;;12.65;4.97;;;21.80;61.30;;;;;;6054826;23;87495;-89
2023/11/06 08:32:12;;;;;;;17.52;4.82;;;21.80;61.70;;;;;;6054562;23;89338;-88
2023/11/06 08:34:42;;;;;;;18.00;5.35;;;21.90;61.70;;;;;;6052766;23;90449;-91
2023/11/06 08:37:12;;;;;;;17.13;4.93;;;21.90;61.90;;;;;;6053662;23;87387;-88
2023/11/06 08:39:43;;;;;;;13.60;4.57;;;21.90;62.00;;;;;;6054310;23;89292;-87
2023/11/06 08:42:10;;;;;;;19.15;5.40;;;21.90;62.30;;;;;;6052297;23;90225;-88
2023/11/06 08:44:36;;;;;;;13.63;3.83;;;21.90;61.70;;;;;;6052813;23;89457;-83
2023/11/06 08:47:01;;;;;;;14.63;4.40;;;21.90;61.70;;;;;;6054169;23;88645;-89
2023/11/06 08:49:28;;;;;;;15.43;4.90;;;22.00;61.00;;;;;;6056747;23;87305;-87
2023/11/06 08:51:54;;;;;;;12.70;4.55;;;22.00;61.60;;;;;;6052196;23;90541;-87
2023/11/06 08:54:20;;;;;;;16.27;5.00;;;22.00;62.00;;;;;;6053663;23;87510;-92
2023/11/06 08:56:46;;;;;;;12.10;4.22;;;22.00;61.30;;;;;;6056461;23;87893;-88
2023/11/06 08:59:12;;;;;;;13.07;4.60;;;22.00;61.80;;;;;;6055056;23;89307;-89
2023/11/06 09:01:38;;;;;;;11.77;4.53;;;22.00;61.80;;;;;;6054389;23;90542;-89
2023/11/06 09:04:06;;;;;;;12.15;4.18;;;22.00;61.60;;;;;;6053791;23;90085;-88
2023/11/06 09:06:32;;;;;;;15.23;5.28;;;22.00;60.00;;;;;;6052291;23;87382;-86
2023/11/06 09:08:58;;;;;;;12.13;4.38;;;22.10;60.10;;;;;;6050847;23;88381;-87
2023/11/06 09:11:24;;;;;;;14.52;5.05;;;22.00;60.50;;;;;;6051143;23;90262;-88
2023/11/06 09:13:50;;;;;;;17.05;4.18;;;22.10;60.80;;;;;;6051072;23;91171;-87
2023/11/06 09:16:17;;;;;;;12.35;4.25;;;22.10;60.40;;;;;;6050893;23;87422;-88
2023/11/06 09:18:43;;;;;;;12.20;3.63;;;22.10;60.50;;;;;;6050315;23;89376;-88
2023/11/06 09:21:13;;;;;;;11.95;4.00;;;22.10;60.40;;;;;;6041507;23;89160;-87
2023/11/06 09:23:42;;;;;;;12.63;4.05;;;22.10;60.40;;;;;;6051003;23;90248;-88
2023/11/06 09:26:10;;;;;;;9.32;3.88;;;22.10;60.40;;;;;;6051610;23;87604;-87
2023/11/06 09:28:36;;;;;;;12.82;4.35;;;22.10;60.30;;;;;;6060754;23;86723;-87
2023/11/06 09:31:02;;;;;;;13.63;4.22;;;22.10;60.30;;;;;;6048997;23;89898;-87
2023/11/06 09:33:28;;;;;;;13.63;4.60;;;22.10;60.40;;;;;;6050819;23;91271;-88
2023/11/06 09:35:54;;;;;;;13.40;4.22;;;22.20;60.50;;;;;;6049964;23;88463;-87
2023/11/06 09:38:19;;;;;;;10.70;4.43;;;22.20;60.70;;;;;;6051597;23;87401;-86
2023/11/06 09:40:45;;;;;;;11.15;3.97;;;22.10;60.60;;;;;;6053023;23;88781;-88
2023/11/06 09:43:11;;;;;;;12.48;4.13;;;22.20;60.60;;;;;;6050732;23;90369;-87
2023/11/06 09:45:40;;;;;;;13.98;3.97;;;22.20;60.70;;;;;;6054109;23;87665;-89
2023/11/06 09:48:11;;;;;;;9.40;3.97;;;22.20;60.70;;;;;;6050750;23;87790;-88
2023/11/06 09:50:41;;;;;;;13.40;4.88;;;22.20;60.70;;;;;;6052191;23;90217;-87
2023/11/06 09:53:08;;;;;;;10.65;3.88;;;22.20;60.30;;;;;;6053689;23;88169;-87
2023/11/06 09:55:35;;;;;;;10.90;3.70;;;22.20;60.30;;;;;;6051567;23;86966;-88
2023/11/06 09:58:05;;;;;;;9.90;3.90;;;22.20;60.30;;;;;;6051433;23;88027;-87
2023/11/06 10:00:31;;;;;;;12.43;4.43;;;22.20;60.10;;;;;;6052828;23;89398;-88
2023/11/06 10:02:56;;;;;;;15.40;4.68;;;22.20;60.20;;;;;;6050896;23;91033;-87
2023/11/06 10:05:23;;;;;;;12.63;4.57;;;22.30;60.30;;;;;;6055255;23;87661;-87
2023/11/06 10:07:54;;;;;;;9.65;4.18;;;22.20;60.20;;;;;;6051640;23;89307;-88
2023/11/06 10:10:22;;;;;;;11.38;3.95;;;22.30;60.30;;;;;;6052096;23;90556;-87
2023/11/06 10:13:04;;;;;;;12.68;4.30;;;22.30;60.30;;;;;;6053152;23;87481;-88
2023/11/06 10:15:34;;;;;;;10.10;4.03;;;22.30;60.30;;;;;;6050485;23;87567;-88
2023/11/06 10:18:14;;;;;;;12.77;4.47;;;22.30;60.30;;;;;;6054216;23;86968;-88
2023/11/06 10:20:44;;;;;;;10.50;3.63;;;22.30;60.90;;;;;;6052298;23;90273;-88
2023/11/06 10:23:10;;;;;;;11.02;4.32;;;22.30;60.20;;;;;;6055157;23;90170;-88
2023/11/06 10:25:37;;;;;;;10.10;3.38;;;22.30;60.10;;;;;;6041728;23;88528;-90
2023/11/06 10:28:16;;;;;;;11.00;4.03;;;22.30;59.60;;;;;;6054128;23;88100;-89
2023/11/06 10:30:50;;;;;;;8.50;3.63;;;22.40;59.70;;;;;;6053102;23;90379;-90
2023/11/06 10:33:16;;;;;;;10.88;3.75;;;22.40;59.60;;;;;;6052025;23;90483;-88
2023/11/06 10:35:42;;;;;;;10.32;3.78;;;22.30;59.30;;;;;;6037791;23;87420;-88
2023/11/06 10:38:24;;;;;;;13.50;3.83;;;22.30;59.30;;;;;;6050276;23;88278;-86
2023/11/06 10:40:50;;;;;;;8.82;3.33;;;22.40;59.20;;;;;;6041771;23;90291;-86
2023/11/06 10:43:18;;;;;;;11.80;3.58;;;22.30;59.10;;;;;;6040117;23;90538;-85
2023/11/06 10:45:46;;;;;;;9.00;3.63;;;22.40;59.20;;;;;;6053431;23;87713;-85
2023/11/06 10:48:31;;;;;;;11.93;4.60;;;22.40;59.30;;;;;;6052328;23;87260;-86
2023/11/06 10:51:00;;;;;;;8.23;3.60;;;22.40;59.30;;;;;;6053170;23;89447;-87
2023/11/06 10:53:28;;;;;;;10.68;3.50;;;22.40;59.50;;;;;;6051191;23;91124;-87
2023/11/06 10:55:55;;;;;;;13.70;4.23;;;22.40;58.90;;;;;;6055406;23;87196;-90
2023/11/06 10:58:22;;;;;;;7.75;3.17;;;22.40;59.20;;;;;;6061371;23;89609;-88
2023/11/06 11:00:48;;;;;;;7.03;3.22;;;22.40;59.40;;;;;;6060772;23;90522;-87
2023/11/06 11:03:17;;;;;;;8.55;3.40;;;22.40;59.30;;;;;;6057633;23;89105;-89
2023/11/06 11:05:42;;;;;;;7.50;2.83;;;22.30;59.50;;;;;;6056760;23;87327;-87
2023/11/06 11:08:09;;;;;;;8.18;3.53;;;22.30;59.50;;;;;;6057869;23;86960;-86
2023/11/06 11:10:35;;;;;;;12.35;3.28;;;22.30;59.80;;;;;;6055541;23;90307;-88
2023/11/06 11:13:02;;;;;;;9.70;3.45;;;22.30;60.00;;;;;;6054584;23;90022;-89
2023/11/06 11:15:30;;;;;;;6.43;2.67;;;22.20;60.00;;;;;;6045561;23;88502;-87
2023/11/06 11:18:09;;;;;;;10.07;3.28;;;22.20;60.30;;;;;;6055582;23;89508;-87
2023/11/06 11:20:50;;;;;;;10.73;3.90;;;22.30;60.40;;;;;;6054025;23;90685;-86
2023/11/06 11:23:16;;;;;;;7.43;3.25;;;22.20;60.60;;;;;;6053982;23;94427;-89
2023/11/06 11:26:01;;;;;;;8.32;2.95;;;22.30;59.90;;;;;;6054847;23;87947;-89
2023/11/06 11:28:27;;;;;;;5.55;2.78;;;22.30;59.50;;;;;;6035182;23;88129;-90
2023/11/06 11:30:54;;;;;;;8.40;2.55;;;22.30;59.60;;;;;;6041015;23;90893;-88
2023/11/06 11:33:53;;;;;;;7.13;3.17;;;22.20;60.00;;;;;;6061338;23;87990;-87
2023/11/06 11:36:35;;;;;;;8.13;2.80;;;22.30;60.10;;;;;;6042144;23;87576;-87
2023/11/06 11:39:13;;;;;;;7.15;3.00;;;22.20;60.10;;;;;;6046063;23;87487;-88
2023/11/06 11:41:59;;;;;;;12.88;3.15;;;22.20;60.10;;;;;;6044696;23;91455;-89
2023/11/06 11:44:25;;;;;;;7.63;2.92;;;22.20;59.90;;;;;;6043487;23;92115;-88
2023/11/06 11:46:50;;;;;;;10.32;3.05;;;22.20;60.00;;;;;;6047133;23;87390;-90
2023/11/06 11:49:52;;;;;;;7.07;3.08;;;22.20;60.10;;;;;;6045416;23;88175;-91
2023/11/06 11:52:23;;;;;;;13.02;3.20;;;22.20;60.20;;;;;;6006094;23;89612;-89
2023/11/06 11:54:50;;;;;;;7.68;2.72;;;22.20;60.00;;;;;;6054419;23;90466;-88
2023/11/06 11:57:16;;;;;;;8.40;2.83;;;22.20;59.40;;;;;;6047577;23;87594;-89
2023/11/06 11:59:49;;;;;;;6.00;2.83;;;22.20;59.00;;;;;;6046224;23;90990;-86
2023/11/06 12:02:26;;;;;;;8.02;3.05;;;22.20;58.80;;;;;;6045272;23;89357;-88
2023/11/06 12:04:57;;;;;;;7.40;2.70;;;22.20;58.70;;;;;;6043614;23;90383;-89
2023/11/06 12:07:25;;;;;;;6.55;2.53;;;22.20;58.40;;;;;;6045961;23;88177;-89
2023/11/06 12:10:02;;;;;;;9.98;2.78;;;22.20;58.20;;;;;;6045403;23;87739;-87
2023/11/06 12:12:29;;;;;;;6.75;3.08;;;22.20;58.20;;;;;;6035405;23;89346;-87
2023/11/06 12:14:56;;;;;;;4.15;2.13;;;22.20;58.10;;;;;;6046054;23;90304;-89
2023/11/06 12:17:26;;;;;;;7.40;2.85;;;22.20;58.30;;;;;;6045711;23;88505;-90
2023/11/06 12:19:53;;;;;;;7.30;2.28;;;22.20;58.10;;;;;;6042982;23;88737;-88
2023/11/06 12:22:23;;;;;;;7.10;2.33;;;22.20;57.80;;;;;;6046901;23;88067;-88
2023/11/06 12:24:52;;;;;;;8.60;2.35;;;22.20;56.10;;;;;;6048256;23;89968;-87
2023/11/06 12:27:20;;;;;;;7.10;2.35;;;22.10;56.40;;;;;;6052776;23;86914;-87
2023/11/06 12:29:46;;;;;;;7.18;2.38;;;22.20;57.20;;;;;;6051161;23;89572;-86
2023/11/06 12:32:23;;;;;;;5.80;2.10;;;22.20;54.90;;;;;;6051458;23;90949;-87
2023/11/06 12:35:09;;;;;;;13.50;2.78;;;22.20;54.50;;;;;;6053232;23;89544;-89
2023/11/06 12:38:05;;;;;;;5.32;2.03;;;22.20;55.30;;;;;;6052286;23;87580;-87
2023/11/06 12:40:31;;;;;;;4.60;1.65;;;22.20;55.50;;;;;;6034164;23;89298;-87
2023/11/06 12:43:00;;;;;;;6.38;1.55;;;22.20;54.30;;;;;;6050202;23;91019;-88
2023/11/06 12:45:40;;;;;;;5.80;2.40;;;22.20;54.90;;;;;;6050433;23;90390;-87
2023/11/06 12:48:30;;;;;;;5.70;1.95;;;22.20;54.80;;;;;;6050574;23;87235;-87